Главная страница
METAR-TAF:

METAR-TAF

Аэропорты :

College Park, Мэриленд, США

широта: 38-58-50N, долгота: 076-55-20W, высота над уровнем моря: 15 м

Текущие метеонаблюдения

Эта сводка был подготовлена 26 минут назад, в 20:43 UTC
Ветер 19 Узел от западно-северо-западный с порывами до 24 Узел
Температура 13°C
Влажность 41%
Давление 1006 hPa
Видимость: 16.1 км
Сплошная облачность на высоте 5000 фута

METAR: KCGS 172043Z AUTO 29019G24KT 10SM OVC050 13/00 A2970 RMK AO1 T01290001

Время: 17:09 (21:09 UTC)


TAF: отсутствует

Метеонаблюдения и прогнозы для более 4000 аэропортов (сводки METAR и TAF).

Имеющиеся станции представлены на карте желтыми и красными точками.

Чтобы увидеть название станции, наведите на нее мышь.

Затем щелкните, чтобы увидеть метеонаблюдения и метеопрогнозы.

Управление картой: чтобы увеличить масштаб, щелкните зеленые кнопки с черным крестиком; чтобы уменьшить масштаб, щелкните зеленую кнопку с тире; для просмотра соседних карт щелкайте зеленые стрелки.


METAR-TAF: